createdAt,value
2022-11-28T00:01:36.657Z,95932.31
2022-11-28T00:04:05.145Z,95922.56
2022-11-28T00:06:33.467Z,95924.97
2022-11-28T00:09:01.968Z,95924.28
2022-11-28T00:11:31.612Z,95930.38
2022-11-28T00:14:00.099Z,95934.72
2022-11-28T00:16:28.370Z,95920.53
2022-11-28T00:18:56.771Z,95921.75
2022-11-28T00:21:24.940Z,95920.38
2022-11-28T00:23:53.199Z,95919.19
2022-11-28T00:26:23.353Z,95916.72
2022-11-28T00:28:52.954Z,95922.00
2022-11-28T00:31:22.650Z,95922.00
2022-11-28T00:33:50.847Z,95919.78
2022-11-28T00:36:19.141Z,95921.63
2022-11-28T00:38:47.318Z,95917.16
2022-11-28T00:41:16.634Z,95912.75
2022-11-28T00:43:45.584Z,95904.75
2022-11-28T00:46:15.601Z,95899.69
2022-11-28T00:48:43.937Z,95906.19
2022-11-28T00:51:13.267Z,95897.47
2022-11-28T00:53:42.558Z,95904.97
2022-11-28T00:56:11.537Z,95904.81
2022-11-28T00:58:39.808Z,95907.66
2022-11-28T01:01:11.464Z,95901.50
2022-11-28T01:03:41.200Z,95897.03
2022-11-28T01:06:10.132Z,95891.28
2022-11-28T01:08:38.414Z,95898.75
2022-11-28T01:11:11.529Z,95905.22
2022-11-28T01:13:39.797Z,95903.25
2022-11-28T01:16:08.541Z,95908.72
2022-11-28T01:18:36.979Z,95907.91
2022-11-28T01:21:07.253Z,95893.47
2022-11-28T01:23:35.636Z,95898.56
2022-11-28T01:26:03.868Z,95902.56
2022-11-28T01:28:32.094Z,95899.50
2022-11-28T01:31:04.905Z,95897.59
2022-11-28T01:33:33.515Z,95890.66
2022-11-28T01:36:01.878Z,95884.09
2022-11-28T01:38:31.814Z,95882.25
2022-11-28T01:41:00.050Z,95879.06
2022-11-28T01:43:28.373Z,95869.66
2022-11-28T01:45:56.640Z,95860.47
2022-11-28T01:48:26.819Z,95857.63
2022-11-28T01:50:59.238Z,95849.09
2022-11-28T01:53:27.625Z,95854.53
2022-11-28T01:55:58.529Z,95849.03
2022-11-28T01:58:26.787Z,95848.44
2022-11-28T02:00:55.579Z,95853.72
2022-11-28T02:03:26.288Z,95853.72
2022-11-28T02:05:54.507Z,95840.75
2022-11-28T02:08:22.729Z,95838.31
2022-11-28T02:11:03.419Z,95837.88
2022-11-28T02:13:37.391Z,95833.63
2022-11-28T02:16:12.195Z,95827.75
2022-11-28T02:18:50.315Z,95833.03
2022-11-28T02:21:27.029Z,95831.56
2022-11-28T02:24:09.762Z,95822.81
2022-11-28T02:27:07.452Z,95824.66
2022-11-28T02:29:57.031Z,95828.34
2022-11-28T02:32:37.451Z,95821.78
2022-11-28T02:35:08.583Z,95833.75
2022-11-28T02:37:40.212Z,95824.22
2022-11-28T02:40:10.154Z,95824.00
2022-11-28T02:42:43.655Z,95823.56
2022-11-28T02:45:13.370Z,95821.16
2022-11-28T02:47:44.918Z,95820.69
2022-11-28T02:50:14.062Z,95813.34
2022-11-28T02:52:43.665Z,95815.78
2022-11-28T02:55:12.294Z,95820.25
2022-11-28T02:57:41.209Z,95808.88
2022-11-28T03:00:29.759Z,95812.31
2022-11-28T03:03:24.480Z,95811.28
2022-11-28T03:05:55.622Z,95813.13
2022-11-28T03:08:33.259Z,95799.91
2022-11-28T03:11:05.011Z,95803.59
2022-11-28T03:13:37.311Z,95802.34
2022-11-28T03:16:10.565Z,95794.53
2022-11-28T03:18:40.924Z,95792.84
2022-11-28T03:21:11.508Z,95791.00
2022-11-28T03:23:43.995Z,95783.91
2022-11-28T03:26:14.062Z,95783.91
2022-11-28T03:28:44.361Z,95787.91
2022-11-28T03:31:13.953Z,95778.94
2022-11-28T03:33:45.782Z,95783.78
2022-11-28T03:36:16.385Z,95773.81
2022-11-28T03:38:46.449Z,95778.50
2022-11-28T03:41:16.816Z,95773.44
2022-11-28T03:43:47.958Z,95777.31
2022-11-28T03:46:17.894Z,95768.38
2022-11-28T03:48:49.088Z,95774.63
2022-11-28T03:51:19.860Z,95767.28
2022-11-28T03:53:51.848Z,95767.03
2022-11-28T03:56:23.206Z,95771.50
2022-11-28T03:58:53.279Z,95776.78
2022-11-28T04:01:28.101Z,95773.50
2022-11-28T04:04:01.109Z,95779.16
2022-11-28T04:06:31.342Z,95761.88
2022-11-28T04:09:01.849Z,95754.63
2022-11-28T04:11:32.460Z,95750.59
2022-11-28T04:14:02.041Z,95749.56
2022-11-28T04:16:32.561Z,95741.06
2022-11-28T04:19:05.784Z,95732.53
2022-11-28T04:21:35.368Z,95737.38
2022-11-28T04:24:04.692Z,95726.81
2022-11-28T04:26:34.824Z,95725.78
2022-11-28T04:29:03.883Z,95719.91
2022-11-28T04:31:32.730Z,95718.06
2022-11-28T04:34:04.019Z,95719.91
2022-11-28T04:36:32.250Z,95714.16
2022-11-28T04:39:00.502Z,95707.03
2022-11-28T04:41:31.182Z,95692.31
2022-11-28T04:44:01.331Z,95691.31
2022-11-28T04:46:32.751Z,95682.56
2022-11-28T04:49:02.360Z,95671.28
2022-11-28T04:51:33.844Z,95664.16
2022-11-28T04:54:02.854Z,95644.41
2022-11-28T04:56:33.282Z,95634.19
2022-11-28T04:59:01.620Z,95635.53
2022-11-28T05:01:30.889Z,95655.66
2022-11-28T05:03:59.862Z,95663.03
2022-11-28T05:06:30.614Z,95658.56
2022-11-28T05:08:58.890Z,95652.78
2022-11-28T05:11:27.102Z,95656.47
2022-11-28T05:13:55.618Z,95651.19
2022-11-28T05:16:23.892Z,95645.88
2022-11-28T05:18:52.161Z,95645.44
2022-11-28T05:21:20.347Z,95646.47
2022-11-28T05:23:49.962Z,95638.09
2022-11-28T05:26:19.165Z,95647.41
2022-11-28T05:28:47.421Z,95645.09
2022-11-28T05:31:15.662Z,95637.75
2022-11-28T05:33:43.878Z,95645.44
2022-11-28T05:36:13.670Z,95639.44
2022-11-28T05:38:42.021Z,95635.53
2022-11-28T05:41:11.953Z,95639.22
2022-11-28T05:43:40.273Z,95634.75
2022-11-28T05:46:08.541Z,95634.75
2022-11-28T05:48:36.851Z,95633.13
2022-11-28T05:51:05.441Z,95634.28
2022-11-28T05:53:33.638Z,95634.50
2022-11-28T05:56:06.831Z,95648.56
2022-11-28T05:58:36.486Z,95644.28
2022-11-28T06:01:11.301Z,95643.72
2022-11-28T06:03:39.511Z,95644.50
2022-11-28T06:06:12.429Z,95641.53
2022-11-28T06:08:41.128Z,95644.63
2022-11-28T06:11:09.457Z,95633.47
2022-11-28T06:13:39.079Z,95642.91
2022-11-28T06:16:09.426Z,95643.38
2022-11-28T06:18:37.829Z,95638.41
2022-11-28T06:21:06.790Z,95643.97
2022-11-28T06:23:35.289Z,95636.03
2022-11-28T06:26:06.296Z,95637.88
2022-11-28T06:28:34.538Z,95641.75
2022-11-28T06:31:04.293Z,95637.50
2022-11-28T06:33:32.487Z,95627.50
2022-11-28T06:36:01.897Z,95629.34
2022-11-28T06:38:30.150Z,95619.00
2022-11-28T06:40:58.863Z,95621.41
2022-11-28T06:43:27.051Z,95627.50
2022-11-28T06:45:55.312Z,95621.19
2022-11-28T06:48:24.966Z,95631.06
2022-11-28T06:50:53.626Z,95622.91
2022-11-28T06:53:21.973Z,95620.94
2022-11-28T06:55:50.204Z,95619.91
2022-11-28T06:58:18.394Z,95620.72
2022-11-28T07:00:46.655Z,95629.44
2022-11-28T07:03:15.179Z,95626.94
2022-11-28T07:05:44.765Z,95640.84
2022-11-28T07:08:12.957Z,95650.50
2022-11-28T07:10:41.242Z,95646.34
2022-11-28T07:13:10.283Z,95645.41
2022-11-28T07:15:38.536Z,95648.63
2022-11-28T07:18:07.296Z,95634.16
2022-11-28T07:20:35.504Z,95627.81
2022-11-28T07:23:05.563Z,95621.56
2022-11-28T07:25:33.842Z,95613.41
2022-11-28T07:28:02.085Z,95607.06
2022-11-28T07:30:30.577Z,95611.00
2022-11-28T07:32:58.821Z,95604.31
2022-11-28T07:35:27.062Z,95601.44
2022-11-28T07:37:55.266Z,95607.53
2022-11-28T07:40:24.904Z,95614.91
2022-11-28T07:42:53.128Z,95613.06
2022-11-28T07:45:22.893Z,95614.66
2022-11-28T07:47:51.226Z,95607.75
2022-11-28T07:50:19.563Z,95604.88
2022-11-28T07:52:49.856Z,95611.00
2022-11-28T07:55:18.108Z,95611.22
2022-11-28T07:57:47.696Z,95621.56
2022-11-28T08:00:17.578Z,95626.66
2022-11-28T08:02:45.812Z,95624.81
2022-11-28T08:05:14.070Z,95638.63
2022-11-28T08:07:42.394Z,95632.25
2022-11-28T08:10:11.031Z,95642.63
2022-11-28T08:12:39.534Z,95641.59
2022-11-28T08:15:09.970Z,95645.03
2022-11-28T08:17:38.184Z,95638.72
2022-11-28T08:20:07.687Z,95639.16
2022-11-28T08:22:35.888Z,95629.59
2022-11-28T08:25:04.053Z,95628.25
2022-11-28T08:27:33.035Z,95615.03
2022-11-28T08:30:01.252Z,95612.03
2022-11-28T08:32:31.860Z,95610.63
2022-11-28T08:35:00.124Z,95606.16
2022-11-28T08:37:29.405Z,95603.72
2022-11-28T08:39:57.878Z,95600.84
2022-11-28T08:42:26.106Z,95594.06
2022-11-28T08:44:54.279Z,95603.41
2022-11-28T08:47:22.484Z,95598.91
2022-11-28T08:49:52.057Z,95591.50
2022-11-28T08:52:20.263Z,95591.50
2022-11-28T08:54:48.738Z,95589.22
2022-11-28T08:57:16.977Z,95578.63
2022-11-28T08:59:45.502Z,95578.38
2022-11-28T09:02:13.923Z,95570.88
2022-11-28T09:04:42.152Z,95582.56
2022-11-28T09:07:11.995Z,95592.94
2022-11-28T09:09:40.235Z,95603.06
2022-11-28T09:12:09.127Z,95601.00
2022-11-28T09:14:37.902Z,95598.94
2022-11-28T09:17:06.139Z,95608.44
2022-11-28T09:19:34.336Z,95605.81
2022-11-28T09:22:02.877Z,95600.50
2022-11-28T09:24:32.535Z,95597.31
2022-11-28T09:27:00.762Z,95599.97
2022-11-28T09:29:29.371Z,95599.72
2022-11-28T09:31:57.705Z,95607.41
2022-11-28T09:34:26.238Z,95597.09
2022-11-28T09:36:54.464Z,95580.13
2022-11-28T09:39:22.865Z,95566.81
2022-11-28T09:41:59.654Z,95557.47
2022-11-28T09:44:29.909Z,95572.25
2022-11-28T09:47:01.195Z,95604.34
2022-11-28T09:49:40.259Z,95608.13
2022-11-28T09:52:22.612Z,95611.09
2022-11-28T09:54:53.677Z,95614.09
2022-11-28T09:57:27.512Z,95612.03
2022-11-28T09:59:55.740Z,95614.44
2022-11-28T10:02:27.321Z,95625.34
2022-11-28T10:05:02.263Z,95624.50
2022-11-28T10:07:33.200Z,95614.66
2022-11-28T10:10:04.669Z,95626.56
2022-11-28T10:12:40.330Z,95620.41
2022-11-28T10:15:20.327Z,95621.88
2022-11-28T10:17:51.506Z,95608.91
2022-11-28T10:20:21.045Z,95614.56
2022-11-28T10:22:51.744Z,95613.34
2022-11-28T10:25:21.348Z,95616.88
2022-11-28T10:27:50.994Z,95613.97
2022-11-28T10:30:23.882Z,95610.22
2022-11-28T10:32:56.806Z,95609.97
2022-11-28T10:35:28.737Z,95605.47
2022-11-28T10:37:57.225Z,95589.41
2022-11-28T10:40:29.384Z,95576.47
2022-11-28T10:43:01.335Z,95576.06
2022-11-28T10:45:32.688Z,95568.34
2022-11-28T10:48:38.033Z,95566.63
2022-11-28T10:51:00.470Z,95565.63
2022-11-28T10:53:36.736Z,95561.13
2022-11-28T10:56:11.835Z,95556.19
2022-11-28T10:58:43.762Z,95563.91
2022-11-28T11:01:12.599Z,95559.00
2022-11-28T11:03:40.929Z,95560.69
2022-11-28T11:06:09.459Z,95559.97
2022-11-28T11:08:38.580Z,95569.47
2022-11-28T11:11:08.254Z,95568.41
2022-11-28T11:13:37.148Z,95569.63
2022-11-28T11:16:08.062Z,95570.19
2022-11-28T11:18:37.445Z,95568.34
2022-11-28T11:21:09.478Z,95561.75
2022-11-28T11:23:38.592Z,95569.53
2022-11-28T11:26:10.256Z,95572.53
2022-11-28T11:28:42.147Z,95572.28
2022-11-28T11:31:19.834Z,95576.22
2022-11-28T11:33:48.140Z,95572.75
2022-11-28T11:36:28.372Z,95590.19
2022-11-28T11:39:08.078Z,95589.06
2022-11-28T11:41:36.260Z,95587.31
2022-11-28T11:44:34.521Z,95590.13
2022-11-28T11:47:05.632Z,95586.34
2022-11-28T11:49:35.312Z,95591.16
2022-11-28T11:52:05.142Z,95583.69
2022-11-28T11:54:33.471Z,95588.91
2022-11-28T11:57:30.646Z,95593.25
2022-11-28T11:59:50.949Z,95593.25
2022-11-28T12:02:24.893Z,95590.03
2022-11-28T12:04:56.226Z,95586.25
2022-11-28T12:07:29.174Z,95589.13
2022-11-28T12:10:01.726Z,95580.84
2022-11-28T12:12:32.838Z,95587.81
2022-11-28T12:15:00.994Z,95582.09
2022-11-28T12:20:51.106Z,95579.63
2022-11-28T12:23:29.712Z,95582.50
2022-11-28T12:26:00.739Z,95585.59
2022-11-28T12:28:36.155Z,95575.75
2022-11-28T12:31:08.906Z,95594.75
2022-11-28T12:33:44.609Z,95587.03
2022-11-28T12:36:16.048Z,95591.53
2022-11-28T12:38:55.741Z,95597.63
2022-11-28T12:41:34.035Z,95591.28
2022-11-28T12:44:04.822Z,95591.06
2022-11-28T12:46:36.852Z,95594.44
2022-11-28T12:49:14.189Z,95596.34
2022-11-28T12:51:49.566Z,95598.53
2022-11-28T12:54:34.528Z,95601.31
2022-11-28T12:57:05.099Z,95597.19
2022-11-28T12:59:35.969Z,95600.09
2022-11-28T13:02:16.531Z,95591.47
2022-11-28T13:04:58.732Z,95581.34
2022-11-28T13:07:30.627Z,95586.78
2022-11-28T13:10:03.586Z,95594.66
2022-11-28T13:12:41.108Z,95595.56
2022-11-28T13:15:11.545Z,95592.59
2022-11-28T13:17:41.869Z,95596.38
2022-11-28T13:20:19.568Z,95602.16
2022-11-28T13:22:56.360Z,95592.84
2022-11-28T13:25:27.696Z,95595.41
2022-11-28T13:27:58.848Z,95603.66
2022-11-28T13:30:28.745Z,95593.31
2022-11-28T13:33:02.705Z,95594.91
2022-11-28T13:35:32.264Z,95586.97
2022-11-28T13:40:52.863Z,95589.97
2022-11-28T13:43:24.817Z,95598.59
2022-11-28T13:45:53.039Z,95593.78
2022-11-28T13:51:43.363Z,95582.47
2022-11-28T13:54:45.750Z,95597.25
2022-11-28T13:57:21.567Z,95594.34
2022-11-28T13:59:55.009Z,95600.44
2022-11-28T14:02:34.850Z,95596.09
2022-11-28T14:05:03.348Z,95611.59
2022-11-28T14:07:34.092Z,95604.69
2022-11-28T14:10:24.396Z,95603.22
2022-11-28T14:12:59.408Z,95603.22
2022-11-28T14:15:31.627Z,95600.81
2022-11-28T14:18:54.269Z,95603.44
2022-11-28T14:21:09.529Z,95601.88
2022-11-28T14:23:42.357Z,95610.34
2022-11-28T14:26:14.209Z,95604.97
2022-11-28T14:28:43.966Z,95611.75
2022-11-28T14:31:21.983Z,95600.03
2022-11-28T14:33:50.281Z,95611.63
2022-11-28T14:36:28.905Z,95611.28
2022-11-28T14:39:26.473Z,95620.03
2022-11-28T14:42:52.024Z,95612.66
2022-11-28T14:45:51.139Z,95620.13
2022-11-28T14:48:20.860Z,95614.47
2022-11-28T14:50:54.600Z,95619.44
2022-11-28T14:53:52.010Z,95614.97
2022-11-28T14:56:30.955Z,95611.38
2022-11-28T14:59:01.734Z,95615.84
2022-11-28T15:01:46.368Z,95606.22
2022-11-28T15:04:31.917Z,95601.03
2022-11-28T15:07:01.129Z,95600.22
2022-11-28T15:09:31.403Z,95598.84
2022-11-28T15:12:13.003Z,95594.13
2022-11-28T15:14:42.622Z,95604.00
2022-11-28T15:17:12.850Z,95597.91
2022-11-28T15:19:44.900Z,95599.50
2022-11-28T15:22:31.383Z,95593.19
2022-11-28T15:25:00.130Z,95601.13
2022-11-28T15:27:30.024Z,95598.69
2022-11-28T15:30:00.052Z,95592.03
2022-11-28T15:32:29.863Z,95588.81
2022-11-28T15:35:01.195Z,95582.59
2022-11-28T15:37:32.170Z,95586.06
2022-11-28T15:40:00.488Z,95588.91
2022-11-28T15:42:32.612Z,95585.69
2022-11-28T15:45:02.100Z,95594.63
2022-11-28T15:47:30.601Z,95586.50
2022-11-28T15:50:00.863Z,95584.88
2022-11-28T15:52:29.242Z,95588.09
2022-11-28T15:54:57.632Z,95585.25
2022-11-28T15:57:28.449Z,95588.47
2022-11-28T15:59:58.332Z,95588.47
2022-11-28T16:02:29.387Z,95590.31
2022-11-28T16:05:01.468Z,95588.69
2022-11-28T16:07:29.848Z,95591.56
2022-11-28T16:09:59.863Z,95595.34
2022-11-28T16:12:28.396Z,95583.41
2022-11-28T16:15:03.430Z,95582.00
2022-11-28T16:17:34.016Z,95584.44
2022-11-28T16:20:02.659Z,95584.06
2022-11-28T16:22:34.027Z,95584.88
2022-11-28T16:25:13.093Z,95583.47
2022-11-28T16:27:42.752Z,95589.56
2022-11-28T16:33:04.726Z,95585.09
2022-11-28T16:35:37.851Z,95585.69
2022-11-28T16:38:07.244Z,95585.31
2022-11-28T16:40:35.549Z,95587.50
2022-11-28T16:43:06.233Z,95583.47
2022-11-28T16:45:34.689Z,95578.78
2022-11-28T16:48:10.005Z,95588.53
2022-11-28T16:50:38.517Z,95593.81
2022-11-28T16:53:07.092Z,95588.31
2022-11-28T16:55:44.307Z,95590.31
2022-11-28T16:58:14.684Z,95582.81
2022-11-28T17:00:44.432Z,95580.41
2022-11-28T17:03:39.455Z,95585.91
2022-11-28T17:06:10.209Z,95596.47
2022-11-28T17:08:38.927Z,95587.50
2022-11-28T17:11:07.426Z,95590.38
2022-11-28T17:13:35.791Z,95593.81
2022-11-28T17:16:04.131Z,95598.31
2022-11-28T17:18:34.000Z,95605.66
2022-11-28T17:21:02.681Z,95596.34
2022-11-28T17:23:31.035Z,95607.25
2022-11-28T17:25:59.318Z,95600.13
2022-11-28T17:28:29.201Z,95600.13
2022-11-28T17:30:57.707Z,95599.13
2022-11-28T17:33:26.011Z,95600.94
2022-11-28T17:35:58.361Z,95603.59
2022-11-28T17:38:27.055Z,95598.88
2022-11-28T17:40:55.339Z,95594.41
2022-11-28T17:43:23.734Z,95595.81
2022-11-28T17:45:52.051Z,95595.44
2022-11-28T17:48:20.702Z,95605.78
2022-11-28T17:50:56.548Z,95602.69
2022-11-28T17:53:40.419Z,95600.63
2022-11-28T17:56:11.897Z,95602.44
2022-11-28T17:58:42.581Z,95607.50
2022-11-28T18:01:17.921Z,95605.69
2022-11-28T18:03:46.364Z,95604.66
2022-11-28T18:06:18.549Z,95602.00
2022-11-28T18:08:49.902Z,95603.84
2022-11-28T18:11:30.711Z,95606.25
2022-11-28T18:14:01.492Z,95589.97
2022-11-28T18:16:36.243Z,95603.19
2022-11-28T18:19:04.950Z,95604.22
2022-11-28T18:21:33.640Z,95616.38
2022-11-28T18:24:04.786Z,95622.47
2022-11-28T18:26:33.108Z,95612.72
2022-11-28T18:29:01.776Z,95615.09
2022-11-28T18:31:30.585Z,95614.09
2022-11-28T18:34:02.315Z,95616.72
2022-11-28T18:36:36.645Z,95608.34
2022-11-28T18:39:09.025Z,95618.69
2022-11-28T18:41:38.082Z,95620.31
2022-11-28T18:44:06.590Z,95614.00
2022-11-28T18:46:35.342Z,95619.06
2022-11-28T18:49:03.860Z,95619.84
2022-11-28T18:51:33.518Z,95619.06
2022-11-28T18:54:03.623Z,95607.44
2022-11-28T18:56:34.157Z,95611.91
2022-11-28T18:59:02.491Z,95619.28
2022-11-28T19:01:31.424Z,95624.00
2022-11-28T19:04:01.164Z,95615.25
2022-11-28T19:06:29.515Z,95628.03
2022-11-28T19:08:59.331Z,95620.66
2022-11-28T19:11:28.695Z,95624.47
2022-11-28T19:13:59.417Z,95631.00
2022-11-28T19:16:31.779Z,95622.75
2022-11-28T19:19:00.167Z,95625.00
2022-11-28T19:21:31.627Z,95622.59
2022-11-28T19:24:00.512Z,95630.75
2022-11-28T19:26:30.969Z,95624.66
2022-11-28T19:29:02.551Z,95629.72
2022-11-28T19:31:31.985Z,95627.06
2022-11-28T19:34:02.010Z,95628.47
2022-11-28T19:36:32.864Z,95625.81
2022-11-28T19:39:04.116Z,95625.81
2022-11-28T19:41:32.453Z,95623.75
2022-11-28T19:44:02.167Z,95623.53
2022-11-28T19:46:35.342Z,95625.94
2022-11-28T19:49:05.205Z,95622.03
2022-11-28T19:51:34.666Z,95622.25
2022-11-28T19:54:04.077Z,95628.81
2022-11-28T19:56:34.660Z,95623.53
2022-11-28T19:59:05.006Z,95633.31
2022-11-28T20:01:35.519Z,95632.94
2022-11-28T20:04:03.889Z,95638.44
2022-11-28T20:06:32.875Z,95631.56
2022-11-28T20:09:02.328Z,95640.28
2022-11-28T20:11:31.423Z,95635.00
2022-11-28T20:14:01.234Z,95637.84
2022-11-28T20:16:31.525Z,95643.94
2022-11-28T20:19:01.077Z,95642.34
2022-11-28T20:21:29.960Z,95650.25
2022-11-28T20:23:59.647Z,95653.72
2022-11-28T20:26:29.682Z,95655.81
2022-11-28T20:28:58.607Z,95657.38
2022-11-28T20:31:30.835Z,95662.66
2022-11-28T20:34:01.484Z,95659.00
2022-11-28T20:36:31.032Z,95655.31
2022-11-28T20:38:59.834Z,95653.50
2022-11-28T20:41:28.410Z,95650.84
2022-11-28T20:43:56.727Z,95660.16
2022-11-28T20:46:27.284Z,95663.41
2022-11-28T20:48:56.239Z,95667.06
2022-11-28T20:51:26.455Z,95663.41
2022-11-28T20:53:54.800Z,95660.53
2022-11-28T20:56:23.695Z,95666.38
2022-11-28T20:58:52.119Z,95662.72
2022-11-28T21:01:22.062Z,95661.34
2022-11-28T21:03:50.532Z,95659.94
2022-11-28T21:06:19.096Z,95655.31
2022-11-28T21:08:48.805Z,95655.81
2022-11-28T21:11:36.973Z,95652.09
2022-11-28T21:14:06.397Z,95651.53
2022-11-28T21:16:35.239Z,95648.91
2022-11-28T21:19:05.032Z,95648.09
2022-11-28T21:21:34.099Z,95654.19
2022-11-28T21:24:04.729Z,95647.63
2022-11-28T21:26:39.111Z,95645.44
2022-11-28T21:29:10.360Z,95644.88
2022-11-28T21:31:41.278Z,95639.13
2022-11-28T21:34:11.033Z,95637.75
2022-11-28T21:36:39.315Z,95636.94
2022-11-28T21:39:09.244Z,95641.19
2022-11-28T21:41:37.551Z,95644.44
2022-11-28T21:44:06.489Z,95640.97
2022-11-28T21:46:34.867Z,95639.94
2022-11-28T21:49:03.237Z,95639.69
2022-11-28T21:51:31.505Z,95632.56
2022-11-28T21:54:02.142Z,95635.69
2022-11-28T21:56:32.251Z,95630.97
2022-11-28T21:59:00.494Z,95633.84
2022-11-28T22:01:29.919Z,95637.84
2022-11-28T22:04:02.374Z,95634.56
2022-11-28T22:06:32.169Z,95633.75
2022-11-28T22:09:07.085Z,95640.97
2022-11-28T22:11:39.392Z,95637.56
2022-11-28T22:14:07.960Z,95625.38
2022-11-28T22:16:36.824Z,95629.06
2022-11-28T22:19:05.694Z,95626.63
2022-11-28T22:21:53.599Z,95626.84
2022-11-28T22:24:24.679Z,95628.09
2022-11-28T22:26:56.091Z,95625.25
2022-11-28T22:29:25.244Z,95633.97
2022-11-28T22:31:55.078Z,95634.56
2022-11-28T22:34:24.655Z,95635.94
2022-11-28T22:36:53.332Z,95637.31
2022-11-28T22:39:22.628Z,95639.94
2022-11-28T22:41:51.111Z,95645.00
2022-11-28T22:44:22.333Z,95647.44
2022-11-28T22:46:50.634Z,95641.34
2022-11-28T22:49:20.041Z,95639.50
2022-11-28T22:51:49.017Z,95636.06
2022-11-28T22:54:17.590Z,95636.88
2022-11-28T22:56:45.963Z,95634.59
2022-11-28T22:59:15.027Z,95638.38
2022-11-28T23:01:45.139Z,95635.94
2022-11-28T23:04:16.321Z,95634.13
2022-11-28T23:06:45.158Z,95641.22
2022-11-28T23:09:14.724Z,95623.53
2022-11-28T23:11:43.157Z,95633.91
2022-11-28T23:14:12.997Z,95635.72
2022-11-28T23:16:41.932Z,95642.84
2022-11-28T23:19:13.691Z,95632.84
2022-11-28T23:21:42.874Z,95640.78
2022-11-28T23:24:13.813Z,95638.72
2022-11-28T23:26:42.401Z,95639.31
2022-11-28T23:29:10.846Z,95634.84
2022-11-28T23:31:39.926Z,95639.88
2022-11-28T23:34:09.194Z,95637.47
2022-11-28T23:36:42.817Z,95641.97
2022-11-28T23:39:13.218Z,95643.00
2022-11-28T23:41:41.483Z,95639.53
2022-11-28T23:44:11.128Z,95641.38
2022-11-28T23:46:39.356Z,95634.47
2022-11-28T23:49:07.800Z,95648.72
2022-11-28T23:51:36.128Z,95636.19
2022-11-28T23:54:05.970Z,95637.22
2022-11-28T23:56:35.145Z,95645.72
2022-11-28T23:59:06.107Z,95638.03
